Time;durP1;ratioP1;P1;durP2;ratioP2;P2;SDS_P1;SDS_P2;PMS_P1;PMS_P2;Temp;Humidity;BMP_temperature;BMP_pressure;BME280_temperature;BME280_humidity;BME280_pressure;Samples;Min_cycle;Max_cycle;Signal;HPM_P1;HPM_P2
2021/12/13 00:01:01;;;;;;;294.65;121.85;;;;;;;-5.50;100.00;99805.28;2046231;28;20659;-73
2021/12/13 00:02:08;;;;;;;303.25;119.78;;;;;;;-5.49;100.00;99809.50;2053811;28;20360;-73
2021/12/13 00:03:19;;;;;;;288.15;118.75;;;;;;;-5.55;100.00;99807.63;2053686;28;20221;-75
2021/12/13 00:04:22;;;;;;;295.00;116.57;;;;;;;-5.53;100.00;99816.84;2039041;28;20246;-73
2021/12/13 00:05:29;;;;;;;285.88;122.38;;;;;;;-5.53;100.00;99816.84;2038620;28;20226;-75
2021/12/13 00:06:33;;;;;;;285.50;121.60;;;;;;;-5.52;100.00;99822.88;2046353;28;20267;-75
2021/12/13 00:07:37;;;;;;;299.70;124.43;;;;;;;-5.53;100.00;99826.44;2046703;28;20218;-75
2021/12/13 00:08:41;;;;;;;302.27;124.15;;;;;;;-5.55;100.00;99824.03;2054507;28;20221;-75
2021/12/13 00:09:48;;;;;;;295.48;122.30;;;;;;;-5.57;100.00;99810.38;2062583;28;20228;-76
2021/12/13 00:10:56;;;;;;;286.50;121.80;;;;;;;-5.57;100.00;99812.16;2053745;28;20229;-75
2021/12/13 00:12:00;;;;;;;296.77;124.18;;;;;;;-5.60;100.00;99805.53;2054891;28;20225;-75
2021/12/13 00:13:07;;;;;;;296.98;124.25;;;;;;;-5.55;100.00;99815.41;2062359;28;20328;-76
2021/12/13 00:14:17;;;;;;;299.10;123.80;;;;;;;-5.47;100.00;99810.16;2054063;28;20771;-75
2021/12/13 00:15:25;;;;;;;296.83;123.35;;;;;;;-5.44;100.00;99815.00;2046819;28;20233;-75
2021/12/13 00:16:30;;;;;;;319.55;128.35;;;;;;;-5.41;100.00;99815.47;2053991;28;20304;-75
2021/12/13 00:17:39;;;;;;;319.98;128.75;;;;;;;-5.37;100.00;99815.94;2046229;28;20636;-75
2021/12/13 00:18:44;;;;;;;300.83;127.00;;;;;;;-5.36;100.00;99816.75;2055406;28;20239;-75
2021/12/13 00:19:49;;;;;;;322.63;127.88;;;;;;;-5.33;100.00;99812.00;2053657;28;20276;-75
2021/12/13 00:20:57;;;;;;;311.25;127.70;;;;;;;-5.35;100.00;99808.75;2046682;28;20225;-75
2021/12/13 00:22:02;;;;;;;310.33;120.20;;;;;;;-5.32;100.00;99816.19;2046941;28;20234;-75
2021/12/13 00:23:13;;;;;;;287.00;119.90;;;;;;;-5.31;100.00;99811.81;2049752;28;20601;-75
2021/12/13 00:24:22;;;;;;;294.85;122.13;;;;;;;-5.28;100.00;99814.88;2054704;28;20225;-75
2021/12/13 00:25:26;;;;;;;281.65;122.28;;;;;;;-5.26;100.00;99814.72;2053661;28;20723;-75
2021/12/13 00:26:34;;;;;;;292.05;118.80;;;;;;;-5.17;100.00;99811.88;2054488;28;20765;-75
2021/12/13 00:27:39;;;;;;;314.27;125.10;;;;;;;-5.16;100.00;99805.66;2053566;28;20260;-75
2021/12/13 00:28:42;;;;;;;306.08;123.70;;;;;;;-5.10;100.00;99811.97;2039091;28;20309;-75
2021/12/13 00:29:47;;;;;;;301.38;124.82;;;;;;;-5.07;100.00;99816.00;2038346;28;20274;-75
2021/12/13 00:31:01;;;;;;;294.10;116.20;;;;;;;-5.03;100.00;99809.47;2044306;28;20233;-76
2021/12/13 00:32:09;;;;;;;285.02;116.28;;;;;;;-5.02;100.00;99808.50;2045412;28;20241;-75
2021/12/13 00:33:16;;;;;;;287.55;116.75;;;;;;;-4.99;100.00;99813.34;2054975;28;20222;-75
2021/12/13 00:34:23;;;;;;;293.52;121.72;;;;;;;-5.00;100.00;99811.72;2062423;28;20232;-75
2021/12/13 00:35:28;;;;;;;303.77;122.15;;;;;;;-5.00;100.00;99811.72;2053826;28;20292;-75
2021/12/13 00:36:34;;;;;;;291.25;120.47;;;;;;;-5.00;100.00;99811.72;2054402;28;20269;-75
2021/12/13 00:37:39;;;;;;;291.52;115.72;;;;;;;-5.02;100.00;99811.09;2053779;28;20693;-75
2021/12/13 00:38:45;;;;;;;304.83;123.03;;;;;;;-5.09;100.00;99802.38;2054774;28;20263;-75
2021/12/13 00:39:51;;;;;;;302.63;123.35;;;;;;;-5.06;100.00;99817.63;2053476;28;20256;-75
2021/12/13 00:40:57;;;;;;;309.23;124.35;;;;;;;-5.13;100.00;99800.09;2054619;28;20221;-75
2021/12/13 00:41:59;;;;;;;293.23;124.57;;;;;;;-5.12;100.00;99803.53;2062504;28;20235;-75
2021/12/13 00:43:03;;;;;;;297.83;123.10;;;;;;;-5.14;100.00;99808.91;2061945;28;20248;-75
2021/12/13 00:44:08;;;;;;;283.10;120.55;;;;;;;-5.16;100.00;99816.06;2062542;28;20236;-75
2021/12/13 00:45:12;;;;;;;310.00;125.97;;;;;;;-5.20;100.00;99807.03;2062598;28;20679;-75
2021/12/13 00:46:16;;;;;;;278.40;119.28;;;;;;;-5.26;100.00;99802.50;2053961;28;20223;-75
2021/12/13 00:47:21;;;;;;;284.42;119.32;;;;;;;-5.29;100.00;99808.06;2045834;28;20225;-75
2021/12/13 00:48:27;;;;;;;271.67;116.82;;;;;;;-5.35;100.00;99802.75;2046637;28;20248;-75
2021/12/13 00:49:30;;;;;;;279.35;119.80;;;;;;;-5.40;100.00;99809.28;2042679;28;20254;-75
2021/12/13 00:50:36;;;;;;;270.33;114.70;;;;;;;-5.42;100.00;99813.03;2045745;28;20665;-75
2021/12/13 00:51:44;;;;;;;269.92;118.50;;;;;;;-5.46;100.00;99824.78;2054603;28;20217;-75
2021/12/13 00:52:48;;;;;;;259.48;116.15;;;;;;;-5.52;100.00;99813.28;2053451;28;20236;-76
2021/12/13 00:53:52;;;;;;;270.73;117.47;;;;;;;-5.56;100.00;99817.22;2046164;28;20241;-75
2021/12/13 00:54:53;;;;;;;250.25;114.35;;;;;;;-5.60;100.00;99812.53;2054532;28;20671;-75
2021/12/13 00:55:55;;;;;;;260.80;112.68;;;;;;;-5.62;100.00;99811.88;2053185;28;20243;-75
2021/12/13 00:57:20;;;;;;;276.40;114.30;;;;;;;-5.70;100.00;99813.56;2053871;28;20226;-75
2021/12/13 00:58:23;;;;;;;261.77;113.15;;;;;;;-5.73;100.00;99811.31;2044620;28;20308;-75
2021/12/13 00:59:29;;;;;;;281.05;114.95;;;;;;;-5.75;100.00;99809.84;2054275;28;20225;-75
2021/12/13 01:00:38;;;;;;;258.20;112.85;;;;;;;-5.79;100.00;99812.00;2062048;28;20291;-75
2021/12/13 01:01:40;;;;;;;271.77;113.40;;;;;;;-5.83;100.00;99805.50;2062499;28;20221;-75
2021/12/13 01:02:45;;;;;;;281.30;116.13;;;;;;;-5.83;100.00;99809.88;2053548;28;20241;-75
2021/12/13 01:03:49;;;;;;;288.05;117.05;;;;;;;-5.82;100.00;99798.50;2045894;28;20795;-75
2021/12/13 01:04:59;;;;;;;279.67;118.63;;;;;;;-5.81;100.00;99803.56;2054255;28;20719;-75
2021/12/13 01:06:46;;;;;;;297.38;120.75;;;;;;;-5.78;100.00;99813.59;2061816;28;20228;-75
2021/12/13 01:08:33;;;;;;;285.98;117.68;;;;;;;-5.77;100.00;99814.41;2053035;28;20360;-75
2021/12/13 01:10:00;;;;;;;284.50;118.63;;;;;;;-5.74;100.00;99814.88;2034753;29;20277;-74
2021/12/13 01:11:12;;;;;;;297.65;121.25;;;;;;;-5.75;100.00;99808.06;2053682;28;20730;-74
2021/12/13 01:12:18;;;;;;;304.67;122.25;;;;;;;-5.70;100.00;99810.97;2045839;28;20241;-74
2021/12/13 01:13:24;;;;;;;306.88;123.55;;;;;;;-5.72;100.00;99807.72;2046207;28;22425;-76
2021/12/13 01:14:45;;;;;;;317.92;125.50;;;;;;;-5.70;100.00;99813.56;2046349;28;20226;-75
2021/12/13 01:15:57;;;;;;;294.80;122.47;;;;;;;-5.68;100.00;99813.38;2047780;28;20728;-76
2021/12/13 01:17:04;;;;;;;312.60;125.20;;;;;;;-5.70;100.00;99815.34;2055490;28;20244;-76
2021/12/13 01:18:27;;;;;;;305.15;122.63;;;;;;;-5.70;100.00;99810.97;2054044;28;20225;-75
2021/12/13 01:19:48;;;;;;;298.25;122.35;;;;;;;-5.66;100.00;99821.00;2062096;28;20594;-76
2021/12/13 01:21:00;;;;;;;286.00;121.88;;;;;;;-5.67;100.00;99815.00;2061629;28;20675;-75
2021/12/13 01:23:47;;;;;;;301.20;123.75;;;;;;;-5.70;100.00;99817.94;2026532;29;20307;-75
2021/12/13 01:25:17;;;;;;;316.75;126.03;;;;;;;-5.70;100.00;99815.34;2021618;29;20267;-75
2021/12/13 01:26:35;;;;;;;341.23;130.10;;;;;;;-5.72;100.00;99815.53;2039242;28;20284;-75
2021/12/13 01:27:39;;;;;;;328.20;127.22;;;;;;;-5.72;100.00;99825.09;2055793;28;20573;-75
2021/12/13 01:28:44;;;;;;;337.15;133.75;;;;;;;-5.64;100.00;99825.06;2053664;28;20275;-75
2021/12/13 01:29:50;;;;;;;316.75;129.25;;;;;;;-5.69;100.00;99816.97;2045755;28;20234;-75
2021/12/13 01:30:59;;;;;;;317.02;129.90;;;;;;;-5.70;100.00;99828.34;2046562;28;20244;-75
2021/12/13 01:32:02;;;;;;;323.17;131.43;;;;;;;-5.70;100.00;99815.34;2054171;28;20245;-75
2021/12/13 01:33:07;;;;;;;328.85;131.95;;;;;;;-5.70;100.00;99816.16;2053411;28;20234;-75
2021/12/13 01:34:08;;;;;;;334.98;131.98;;;;;;;-5.70;100.00;99821.34;2046369;28;20295;-75
2021/12/13 01:35:19;;;;;;;332.65;131.25;;;;;;;-5.66;100.00;99826.19;2045702;28;20704;-75
2021/12/13 01:36:25;;;;;;;344.95;134.40;;;;;;;-5.66;100.00;99818.41;2046435;28;20277;-75
2021/12/13 01:37:31;;;;;;;326.35;131.75;;;;;;;-5.67;100.00;99822.78;2054309;28;20261;-75
2021/12/13 01:38:35;;;;;;;327.48;129.05;;;;;;;-5.68;100.00;99821.97;2053289;28;20643;-75
2021/12/13 01:39:40;;;;;;;318.23;129.40;;;;;;;-5.68;100.00;99821.19;2046236;28;20258;-74
2021/12/13 01:40:46;;;;;;;316.67;129.60;;;;;;;-5.69;100.00;99827.34;2054272;28;20284;-74
2021/12/13 01:41:50;;;;;;;325.58;131.85;;;;;;;-5.69;100.00;99822.16;2053359;28;20734;-75
2021/12/13 01:42:58;;;;;;;328.58;131.55;;;;;;;-5.73;100.00;99813.09;2046378;28;20606;-75
2021/12/13 01:44:03;;;;;;;337.15;131.80;;;;;;;-5.68;100.00;99827.19;2054819;28;20227;-75
2021/12/13 01:45:07;;;;;;;316.05;130.65;;;;;;;-5.66;100.00;99815.78;2053270;28;20308;-75
2021/12/13 01:46:10;;;;;;;308.70;126.82;;;;;;;-5.63;100.00;99820.66;2053932;28;20213;-75
2021/12/13 01:47:20;;;;;;;327.98;132.10;;;;;;;-5.64;100.00;99821.66;2053811;28;20271;-75
2021/12/13 01:48:25;;;;;;;321.65;131.63;;;;;;;-5.66;100.00;99824.41;2046547;28;20230;-75
2021/12/13 01:49:29;;;;;;;305.83;131.45;;;;;;;-5.68;100.00;99818.56;2046270;28;20229;-75
2021/12/13 01:50:43;;;;;;;336.52;131.10;;;;;;;-5.70;100.00;99813.56;2045589;28;20684;-76
2021/12/13 01:51:45;;;;;;;322.85;129.13;;;;;;;-5.72;100.00;99809.53;2055388;28;20276;-75
2021/12/13 01:52:48;;;;;;;320.88;130.88;;;;;;;-5.73;100.00;99815.69;2053100;28;20664;-75
2021/12/13 01:53:52;;;;;;;334.35;135.18;;;;;;;-5.75;100.00;99813.25;2053959;28;20268;-75
2021/12/13 01:54:55;;;;;;;324.67;132.55;;;;;;;-5.75;100.00;99808.06;2062217;28;20279;-75
2021/12/13 01:55:58;;;;;;;313.17;134.23;;;;;;;-5.77;100.00;99820.41;2053500;28;20229;-75
2021/12/13 01:57:22;;;;;;;320.42;128.98;;;;;;;-5.82;100.00;99809.75;2053452;28;20312;-75
2021/12/13 01:58:37;;;;;;;315.00;127.78;;;;;;;-5.80;100.00;99815.56;2053225;28;20225;-75
2021/12/13 01:59:50;;;;;;;318.85;129.80;;;;;;;-5.84;100.00;99814.28;2046974;28;20688;-75
2021/12/13 02:01:11;;;;;;;305.25;128.82;;;;;;;-5.86;100.00;99811.06;2053799;28;20225;-75
2021/12/13 02:02:20;;;;;;;318.27;127.10;;;;;;;-5.83;100.00;99809.88;2045420;28;20229;-75
2021/12/13 02:03:22;;;;;;;306.80;123.60;;;;;;;-5.89;100.00;99788.03;2045155;28;20249;-75
2021/12/13 02:04:25;;;;;;;307.63;128.68;;;;;;;-5.83;100.00;99810.69;2053805;28;20305;-75
2021/12/13 02:05:29;;;;;;;328.02;135.05;;;;;;;-5.85;100.00;99804.06;2053254;28;20708;-75
2021/12/13 02:06:38;;;;;;;326.45;131.02;;;;;;;-5.84;100.00;99814.28;2045529;28;20273;-75
2021/12/13 02:07:44;;;;;;;316.73;133.57;;;;;;;-5.86;100.00;99818.84;2053814;28;20224;-75
2021/12/13 02:08:51;;;;;;;339.23;133.65;;;;;;;-5.86;100.00;99813.66;2053027;28;20221;-75
2021/12/13 02:09:54;;;;;;;314.23;131.77;;;;;;;-5.87;100.00;99812.03;2053702;28;20229;-75
2021/12/13 02:10:56;;;;;;;324.25;134.73;;;;;;;-5.92;100.00;99801.38;2054272;28;20225;-75
2021/12/13 02:12:01;;;;;;;328.38;136.18;;;;;;;-5.90;100.00;99807.19;2054353;28;20225;-75
2021/12/13 02:13:06;;;;;;;333.80;136.07;;;;;;;-5.92;100.00;99796.16;2053182;28;20226;-75
2021/12/13 02:14:13;;;;;;;307.02;128.90;;;;;;;-5.95;100.00;99793.91;2053734;28;20251;-75
2021/12/13 02:17:00;;;;;;;336.95;131.90;;;;;;;-6.00;100.00;99783.22;2055223;28;20233;-75
2021/12/13 02:18:01;;;;;;;334.45;134.68;;;;;;;-6.01;100.00;99781.59;2055045;28;20229;-75
2021/12/13 02:19:03;;;;;;;337.65;135.88;;;;;;;-6.05;100.00;99770.75;2055638;28;20221;-75
2021/12/13 02:20:09;;;;;;;337.45;135.38;;;;;;;-6.07;100.00;99757.16;2047071;28;20646;-75
2021/12/13 02:21:18;;;;;;;314.40;131.35;;;;;;;-6.10;100.00;99767.06;2039684;29;20299;-75
2021/12/13 02:22:39;;;;;;;314.80;128.95;;;;;;;-6.12;100.00;99766.41;2039935;28;23118;-75
2021/12/13 02:23:43;;;;;;;327.88;129.43;;;;;;;-6.14;100.00;99771.78;2041856;28;20864;-75
2021/12/13 02:24:45;;;;;;;322.35;128.73;;;;;;;-6.15;100.00;99770.19;2046713;28;20671;-74
2021/12/13 02:25:49;;;;;;;306.73;131.27;;;;;;;-6.17;100.00;99776.50;2047026;28;20736;-75
2021/12/13 02:26:50;;;;;;;311.60;125.97;;;;;;;-6.20;100.00;99771.66;2047422;28;20250;-74
2021/12/13 02:27:55;;;;;;;310.27;128.52;;;;;;;-6.24;100.00;99760.00;2046977;28;20700;-74
2021/12/13 02:29:03;;;;;;;298.42;125.97;;;;;;;-6.20;100.00;99769.06;2047605;28;20225;-74
2021/12/13 02:30:16;;;;;;;299.08;122.43;;;;;;;-6.22;100.00;99763.22;2047789;28;20289;-75
2021/12/13 02:31:20;;;;;;;286.00;118.40;;;;;;;-6.26;100.00;99760.97;2056378;28;20308;-74
2021/12/13 02:32:25;;;;;;;292.48;119.65;;;;;;;-6.28;100.00;99765.53;2054722;28;20233;-75
2021/12/13 02:33:29;;;;;;;277.23;114.32;;;;;;;-6.32;100.00;99764.25;2047492;28;20264;-74
2021/12/13 02:34:33;;;;;;;273.02;114.20;;;;;;;-6.32;100.00;99766.84;2038963;28;20219;-75
2021/12/13 02:35:38;;;;;;;259.77;114.78;;;;;;;-6.35;100.00;99763.75;2047277;28;20284;-75
2021/12/13 02:36:45;;;;;;;267.17;113.65;;;;;;;-6.35;100.00;99769.75;2055641;28;20225;-74
2021/12/13 02:37:48;;;;;;;273.48;112.60;;;;;;;-6.35;100.00;99768.97;2052476;28;20608;-74
2021/12/13 02:38:53;;;;;;;287.35;117.38;;;;;;;-6.39;100.00;99771.09;2047022;28;20242;-74
2021/12/13 02:39:58;;;;;;;270.15;115.78;;;;;;;-6.35;100.00;99774.97;2056506;28;20238;-74
2021/12/13 02:41:01;;;;;;;278.60;113.50;;;;;;;-6.31;100.00;99781.44;2053999;28;20285;-74
2021/12/13 02:42:07;;;;;;;286.98;114.78;;;;;;;-6.31;100.00;99784.03;2047068;28;20257;-74
2021/12/13 02:43:14;;;;;;;268.50;114.97;;;;;;;-6.34;100.00;99776.59;2047563;28;20237;-74
2021/12/13 02:44:20;;;;;;;294.70;119.43;;;;;;;-6.39;100.00;99776.28;2047153;28;20584;-73
2021/12/13 02:45:26;;;;;;;302.02;118.50;;;;;;;-6.39;100.00;99783.25;2056036;28;20311;-73
2021/12/13 02:46:28;;;;;;;289.45;117.55;;;;;;;-6.41;100.00;99780.84;2062713;28;20244;-74
2021/12/13 02:47:33;;;;;;;270.10;115.38;;;;;;;-6.43;100.00;99776.78;2063537;28;20225;-74
2021/12/13 02:48:41;;;;;;;276.45;116.63;;;;;;;-6.43;100.00;99776.78;2054635;28;20229;-74
2021/12/13 02:49:43;;;;;;;272.80;114.20;;;;;;;-6.45;100.00;99776.94;2047636;28;20782;-74
2021/12/13 02:50:51;;;;;;;277.15;115.72;;;;;;;-6.44;100.00;99775.97;2046900;28;20321;-74
2021/12/13 02:51:55;;;;;;;288.92;113.90;;;;;;;-6.47;100.00;99781.50;2055497;28;20229;-74
2021/12/13 02:53:00;;;;;;;299.92;120.45;;;;;;;-6.46;100.00;99779.72;2054663;28;20648;-74
2021/12/13 02:54:06;;;;;;;289.95;119.03;;;;;;;-6.48;100.00;99773.91;2046763;28;20230;-74
2021/12/13 02:55:09;;;;;;;281.13;119.75;;;;;;;-6.46;100.00;99777.13;2047496;28;20237;-74
2021/12/13 02:56:13;;;;;;;280.58;116.47;;;;;;;-6.46;100.00;99782.31;2047082;28;20230;-74
2021/12/13 02:57:16;;;;;;;280.35;118.60;;;;;;;-6.47;100.00;99781.50;2047387;28;20230;-74
2021/12/13 02:58:25;;;;;;;287.60;119.28;;;;;;;-6.47;100.00;99781.50;2046671;28;20237;-74
2021/12/13 02:59:32;;;;;;;300.48;122.35;;;;;;;-6.46;100.00;99777.94;2054587;28;20225;-74
2021/12/13 03:00:38;;;;;;;309.40;125.60;;;;;;;-6.44;100.00;99775.97;2055148;28;20241;-74
2021/12/13 03:01:42;;;;;;;308.13;126.25;;;;;;;-6.44;100.00;99780.34;2063365;28;20221;-73
2021/12/13 03:02:48;;;;;;;309.52;128.52;;;;;;;-6.44;100.00;99777.75;2063296;28;20773;-74
2021/12/13 03:03:51;;;;;;;304.80;123.32;;;;;;;-6.44;100.00;99781.16;2054222;28;20696;-74
2021/12/13 03:04:54;;;;;;;309.35;121.28;;;;;;;-6.44;100.00;99781.16;2054856;28;20229;-74
2021/12/13 03:05:57;;;;;;;301.38;127.72;;;;;;;-6.43;100.00;99779.38;2054707;28;20229;-75
2021/12/13 03:07:05;;;;;;;294.10;124.63;;;;;;;-6.40;100.00;99779.88;2054590;28;20277;-74
2021/12/13 03:08:15;;;;;;;305.92;125.55;;;;;;;-6.36;100.00;99783.72;2047041;28;20746;-74
2021/12/13 03:09:19;;;;;;;313.77;127.38;;;;;;;-6.37;100.00;99783.91;2047504;28;20234;-74
2021/12/13 03:10:27;;;;;;;320.75;129.13;;;;;;;-6.37;100.00;99782.13;2055092;28;20295;-74
2021/12/13 03:11:33;;;;;;;309.55;126.63;;;;;;;-6.38;100.00;99780.50;2054577;28;20222;-73
2021/12/13 03:12:34;;;;;;;302.73;127.63;;;;;;;-6.38;100.00;99788.28;2046749;28;27631;-74
2021/12/13 03:13:36;;;;;;;302.50;127.87;;;;;;;-6.39;100.00;99789.25;2046606;28;20287;-74
2021/12/13 03:14:41;;;;;;;324.63;129.63;;;;;;;-6.40;100.00;99782.47;2046696;28;20481;-74
2021/12/13 03:15:45;;;;;;;316.20;127.97;;;;;;;-6.36;100.00;99790.72;2047059;28;20261;-75
2021/12/13 03:16:49;;;;;;;313.27;128.88;;;;;;;-6.33;100.00;99791.19;2046671;28;20589;-74
2021/12/13 03:17:55;;;;;;;322.77;127.15;;;;;;;-6.36;100.00;99782.91;2055095;28;20719;-74
2021/12/13 03:19:03;;;;;;;332.88;132.38;;;;;;;-6.39;100.00;99784.06;2053883;28;20221;-74
2021/12/13 03:20:26;;;;;;;316.10;129.38;;;;;;;-6.33;100.00;99783.41;2055543;28;20664;-74
2021/12/13 03:22:00;;;;;;;314.90;128.90;;;;;;;-6.32;100.00;99790.22;2062849;28;20279;-74
2021/12/13 03:23:12;;;;;;;301.05;121.47;;;;;;;-6.29;100.00;99789.88;2053705;28;20229;-74
2021/12/13 03:24:31;;;;;;;310.52;127.43;;;;;;;-6.26;100.00;99792.13;2055955;28;20742;-74
2021/12/13 03:25:38;;;;;;;320.67;127.03;;;;;;;-6.18;100.00;99790.47;2053979;28;20277;-74
2021/12/13 03:27:10;;;;;;;341.50;128.90;;;;;;;-6.19;100.00;99781.88;2047250;28;20237;-75
2021/12/13 03:28:21;;;;;;;324.13;130.77;;;;;;;-6.18;100.00;99795.66;2050021;28;20233;-74
2021/12/13 03:29:30;;;;;;;333.50;131.05;;;;;;;-6.19;100.00;99789.66;2054297;28;20750;-74
2021/12/13 03:30:40;;;;;;;334.80;131.18;;;;;;;-6.19;100.00;99794.84;2054043;28;20320;-74
2021/12/13 03:31:45;;;;;;;330.67;130.23;;;;;;;-6.22;100.00;99784.81;2047637;28;20230;-74
2021/12/13 03:32:52;;;;;;;326.15;132.45;;;;;;;-6.23;100.00;99791.00;2054064;28;20264;-74
2021/12/13 03:33:58;;;;;;;338.80;132.70;;;;;;;-6.23;100.00;99788.41;2055252;28;20234;-74
2021/12/13 03:35:06;;;;;;;329.45;130.40;;;;;;;-6.24;100.00;99781.59;2054044;28;20707;-75
2021/12/13 03:36:12;;;;;;;334.50;128.90;;;;;;;-6.24;100.00;99786.78;2047278;28;20230;-74
2021/12/13 03:37:16;;;;;;;339.95;132.10;;;;;;;-6.26;100.00;99786.91;2046901;28;20638;-74
2021/12/13 03:38:28;;;;;;;328.10;133.82;;;;;;;-6.27;100.00;99787.91;2046333;28;20261;-74
2021/12/13 03:39:32;;;;;;;350.58;134.20;;;;;;;-6.26;100.00;99788.72;2047830;28;20226;-74
2021/12/13 03:40:34;;;;;;;338.33;130.80;;;;;;;-6.28;100.00;99791.47;2053935;28;20237;-74
2021/12/13 03:41:37;;;;;;;323.73;130.20;;;;;;;-6.27;100.00;99798.28;2054416;28;20280;-74
2021/12/13 03:42:43;;;;;;;321.05;131.35;;;;;;;-6.27;100.00;99797.47;2054200;28;20229;-74
2021/12/13 03:43:48;;;;;;;328.90;129.43;;;;;;;-6.29;100.00;99795.06;2054498;28;20802;-74
2021/12/13 03:44:54;;;;;;;322.65;128.25;;;;;;;-6.28;100.00;99791.47;2045929;28;20372;-74
2021/12/13 03:46:01;;;;;;;315.20;131.23;;;;;;;-6.29;100.00;99784.69;2047044;28;20272;-74
2021/12/13 03:47:08;;;;;;;325.33;128.07;;;;;;;-6.29;100.00;99791.66;2062647;28;20720;-74
2021/12/13 03:48:12;;;;;;;313.65;130.13;;;;;;;-6.32;100.00;99792.81;2054126;28;20221;-74
2021/12/13 03:49:15;;;;;;;325.02;130.60;;;;;;;-6.32;100.00;99792.81;2054848;28;20244;-74
2021/12/13 03:50:20;;;;;;;339.45;129.95;;;;;;;-6.31;100.00;99791.84;2045966;28;20330;-74
2021/12/13 03:51:23;;;;;;;328.52;132.30;;;;;;;-6.31;100.00;99798.81;2038946;29;20231;-74
2021/12/13 03:52:30;;;;;;;310.60;128.18;;;;;;;-6.32;100.00;99800.59;2046330;28;20277;-74
2021/12/13 03:53:37;;;;;;;319.35;126.47;;;;;;;-6.31;100.00;99801.41;2041244;28;20234;-75
2021/12/13 03:54:39;;;;;;;295.85;126.72;;;;;;;-6.35;100.00;99798.31;2054998;28;20226;-74
2021/12/13 03:55:43;;;;;;;318.05;125.97;;;;;;;-6.40;100.00;99795.44;2045852;28;20249;-74
2021/12/13 03:56:46;;;;;;;309.38;125.45;;;;;;;-6.44;100.00;99795.94;2054420;28;20594;-74
2021/12/13 03:57:51;;;;;;;300.70;123.53;;;;;;;-6.47;100.00;99796.28;2054221;28;20233;-74
2021/12/13 03:58:56;;;;;;;299.08;124.03;;;;;;;-6.50;100.00;99807.81;2054793;28;20240;-75
2021/12/13 03:59:59;;;;;;;289.35;122.88;;;;;;;-6.54;100.00;99801.31;2053997;28;20249;-75
2021/12/13 04:01:09;;;;;;;291.88;124.03;;;;;;;-6.58;100.00;99797.44;2053887;28;20264;-75
2021/12/13 04:02:16;;;;;;;300.00;123.63;;;;;;;-6.62;100.00;99794.38;2055043;28;20225;-75
2021/12/13 04:03:19;;;;;;;311.75;128.13;;;;;;;-6.58;100.00;99797.44;2062406;28;20220;-75
2021/12/13 04:04:23;;;;;;;321.88;127.68;;;;;;;-6.60;100.00;99794.22;2062981;28;20233;-75
2021/12/13 04:05:27;;;;;;;306.05;125.95;;;;;;;-6.63;100.00;99791.94;2054322;28;20280;-75
2021/12/13 04:06:28;;;;;;;315.40;131.30;;;;;;;-6.64;100.00;99798.09;2054721;28;20279;-75
2021/12/13 04:07:35;;;;;;;334.88;133.95;;;;;;;-6.63;100.00;99797.13;2062913;28;20225;-74
2021/12/13 04:08:39;;;;;;;304.98;128.10;;;;;;;-6.63;100.00;99799.72;2045770;28;20261;-74
2021/12/13 04:09:43;;;;;;;324.00;131.05;;;;;;;-6.65;100.00;99799.91;2046704;28;20241;-74
2021/12/13 04:10:48;;;;;;;317.05;131.90;;;;;;;-6.65;100.00;99809.47;2045989;28;20387;-75
2021/12/13 04:11:52;;;;;;;335.17;130.93;;;;;;;-6.72;100.00;99804.13;2046238;28;20233;-75
2021/12/13 04:12:57;;;;;;;334.77;134.75;;;;;;;-6.67;100.00;99817.44;2054715;28;20635;-74
2021/12/13 04:14:05;;;;;;;328.35;131.68;;;;;;;-6.68;100.00;99817.59;2053989;28;20748;-75
2021/12/13 04:15:18;;;;;;;323.52;131.70;;;;;;;-6.69;100.00;99813.34;2046900;28;20646;-75
2021/12/13 04:16:33;;;;;;;316.15;127.43;;;;;;;-6.68;100.00;99820.19;2062349;28;20672;-75
2021/12/13 04:17:45;;;;;;;323.67;129.75;;;;;;;-6.68;100.00;99821.00;2062396;28;20228;-75
2021/12/13 04:19:08;;;;;;;330.13;133.25;;;;;;;-6.70;100.00;99814.34;2055979;28;20287;-75
2021/12/13 04:20:15;;;;;;;325.25;129.07;;;;;;;-6.70;100.00;99806.56;2053781;28;20217;-75
2021/12/13 04:21:18;;;;;;;329.15;132.32;;;;;;;-6.70;100.00;99811.75;2046566;28;20687;-75
2021/12/13 04:22:24;;;;;;;317.73;132.40;;;;;;;-6.74;100.00;99805.28;2045719;28;20238;-75
2021/12/13 04:23:25;;;;;;;336.00;131.13;;;;;;;-6.74;100.00;99810.47;2046658;28;20705;-74
2021/12/13 04:24:33;;;;;;;328.50;132.77;;;;;;;-6.76;100.00;99804.63;2054740;28;20217;-74
2021/12/13 04:25:37;;;;;;;339.30;132.27;;;;;;;-6.77;100.00;99810.81;2062356;28;20729;-75
2021/12/13 04:26:42;;;;;;;313.65;133.10;;;;;;;-6.79;100.00;99808.34;2054098;28;20297;-75
2021/12/13 04:27:48;;;;;;;329.45;138.75;;;;;;;-6.85;100.00;99796.88;2054585;28;20275;-75
2021/12/13 04:28:51;;;;;;;352.90;140.25;;;;;;;-6.79;100.00;99813.53;2062314;28;20233;-74
2021/12/13 04:29:56;;;;;;;330.90;134.75;;;;;;;-6.80;100.00;99798.97;2062638;28;20225;-74
2021/12/13 04:31:00;;;;;;;336.50;136.82;;;;;;;-6.80;100.00;99806.75;2051760;28;20225;-74
2021/12/13 04:32:14;;;;;;;331.38;137.57;;;;;;;-6.79;100.00;99810.13;2046061;28;20234;-74
2021/12/13 04:33:22;;;;;;;359.77;139.38;;;;;;;-6.81;100.00;99815.50;2053573;28;20233;-74
2021/12/13 04:34:26;;;;;;;349.98;135.60;;;;;;;-6.81;100.00;99814.69;2054929;28;20225;-74
2021/12/13 04:35:29;;;;;;;327.90;135.90;;;;;;;-6.81;100.00;99820.69;2053883;28;20324;-74
2021/12/13 04:36:33;;;;;;;362.38;138.68;;;;;;;-6.81;100.00;99825.06;2053885;28;20314;-75
2021/12/13 04:37:37;;;;;;;338.00;131.23;;;;;;;-6.81;100.00;99827.66;2062224;28;20310;-75
2021/12/13 04:38:48;;;;;;;335.25;136.77;;;;;;;-6.81;100.00;99830.25;2054016;28;20300;-74
2021/12/13 04:39:55;;;;;;;348.55;138.20;;;;;;;-6.85;100.00;99822.81;2040231;28;20238;-76
2021/12/13 04:40:56;;;;;;;342.60;136.82;;;;;;;-6.84;100.00;99831.41;2046586;28;20288;-75
2021/12/13 04:42:02;;;;;;;318.63;132.83;;;;;;;-6.86;100.00;99825.56;2054587;28;20225;-75
2021/12/13 04:43:07;;;;;;;349.65;137.35;;;;;;;-6.89;100.00;99829.28;2053383;28;20308;-75
2021/12/13 04:44:11;;;;;;;333.75;136.05;;;;;;;-6.91;100.00;99823.47;2046646;28;20627;-75
2021/12/13 04:45:17;;;;;;;336.95;135.90;;;;;;;-6.90;100.00;99822.47;2054164;28;20281;-75
2021/12/13 04:46:19;;;;;;;337.67;132.18;;;;;;;-6.93;100.00;99817.63;2061673;28;20221;-74
2021/12/13 04:47:23;;;;;;;329.20;134.05;;;;;;;-6.91;100.00;99817.47;2062530;28;20304;-74
2021/12/13 04:48:29;;;;;;;327.38;132.15;;;;;;;-6.92;100.00;99816.66;2062670;28;20301;-74
2021/12/13 04:49:32;;;;;;;340.55;136.80;;;;;;;-6.92;100.00;99816.66;2045507;28;20229;-74
2021/12/13 04:50:39;;;;;;;324.90;130.35;;;;;;;-6.92;100.00;99818.44;2046139;28;20285;-74
2021/12/13 04:51:43;;;;;;;317.00;131.25;;;;;;;-6.96;100.00;99815.34;2045762;28;20233;-74
2021/12/13 04:52:45;;;;;;;321.48;131.30;;;;;;;-6.96;100.00;99820.53;2038567;29;20242;-74
2021/12/13 04:53:48;;;;;;;331.00;133.18;;;;;;;-6.95;100.00;99819.59;2047705;28;20280;-75
2021/12/13 04:54:53;;;;;;;329.15;135.13;;;;;;;-6.95;100.00;99816.16;2045921;28;20266;-75
2021/12/13 04:56:03;;;;;;;318.15;131.02;;;;;;;-6.93;100.00;99816.81;2046680;28;20226;-75
2021/12/13 04:57:04;;;;;;;313.33;130.07;;;;;;;-6.93;100.00;99817.63;2048865;28;20247;-75
2021/12/13 04:58:11;;;;;;;319.65;132.95;;;;;;;-6.92;100.00;99816.66;2046184;28;20269;-76
2021/12/13 04:59:13;;;;;;;340.55;134.00;;;;;;;-6.90;100.00;99821.69;2045652;28;20730;-75
2021/12/13 05:00:19;;;;;;;325.27;132.75;;;;;;;-6.88;100.00;99824.91;2045753;28;20230;-76
2021/12/13 05:01:20;;;;;;;326.33;129.20;;;;;;;-6.89;100.00;99818.09;2045878;28;20229;-75